createdAt,value
2018-02-17T00:00:46.167Z,0.00
2018-02-17T00:01:46.630Z,0.00
2018-02-17T00:02:45.527Z,0.00
2018-02-17T00:03:45.511Z,0.00
2018-02-17T00:04:45.494Z,0.00
2018-02-17T00:05:45.490Z,0.00
2018-02-17T00:06:45.454Z,0.00
2018-02-17T00:07:45.450Z,0.00
2018-02-17T00:08:45.414Z,0.00
2018-02-17T00:09:45.396Z,0.00
2018-02-17T00:10:45.377Z,0.00
2018-02-17T00:11:45.383Z,0.00
2018-02-17T00:12:45.340Z,0.00
2018-02-17T00:13:45.317Z,0.00
2018-02-17T00:14:45.298Z,0.00
2018-02-17T00:15:45.302Z,0.00
2018-02-17T00:16:45.267Z,0.00
2018-02-17T00:17:45.246Z,0.00
2018-02-17T00:18:45.227Z,0.00
2018-02-17T00:19:45.211Z,0.00
2018-02-17T00:20:45.188Z,0.00
2018-02-17T00:21:45.185Z,0.00
2018-02-17T00:22:45.154Z,0.00
2018-02-17T00:23:45.135Z,0.00
2018-02-17T00:24:45.119Z,0.00
2018-02-17T00:25:45.097Z,0.00
2018-02-17T00:26:45.093Z,0.00
2018-02-17T00:27:45.061Z,0.00
2018-02-17T00:28:45.046Z,0.00
2018-02-17T00:29:45.021Z,0.00
2018-02-17T00:30:45.004Z,0.00
2018-02-17T00:31:44.985Z,0.00
2018-02-17T00:32:44.980Z,0.00
2018-02-17T00:33:44.946Z,0.00
2018-02-17T00:34:44.931Z,0.00
2018-02-17T00:35:44.911Z,0.00
2018-02-17T00:36:44.906Z,0.00
2018-02-17T00:37:44.880Z,0.00
2018-02-17T00:38:44.870Z,0.00
2018-02-17T00:39:44.833Z,0.00
2018-02-17T00:40:44.812Z,0.00
2018-02-17T00:41:44.802Z,0.00
2018-02-17T00:42:44.776Z,0.00
2018-02-17T00:43:44.772Z,0.00
2018-02-17T00:44:44.744Z,0.00
2018-02-17T00:45:44.719Z,0.00
2018-02-17T00:46:44.698Z,0.00
2018-02-17T00:47:44.685Z,0.00
2018-02-17T00:48:44.677Z,0.00
2018-02-17T00:49:44.661Z,0.00
2018-02-17T00:50:44.626Z,0.00
2018-02-17T00:51:44.644Z,0.00
2018-02-17T00:52:44.598Z,0.00
2018-02-17T00:53:44.571Z,0.00
2018-02-17T00:54:44.555Z,0.00
2018-02-17T00:55:44.546Z,0.00
2018-02-17T00:56:44.515Z,0.00
2018-02-17T00:57:44.491Z,0.00
2018-02-17T00:58:44.476Z,0.00
2018-02-17T00:59:44.461Z,0.00
2018-02-17T01:00:44.452Z,0.00
2018-02-17T01:01:44.424Z,0.00
2018-02-17T01:02:44.402Z,0.00
2018-02-17T01:03:44.379Z,0.00
2018-02-17T01:04:44.377Z,0.00
2018-02-17T01:05:44.342Z,0.00
2018-02-17T01:06:44.335Z,0.00
2018-02-17T01:07:44.304Z,0.00
2018-02-17T01:08:44.287Z,0.00
2018-02-17T01:09:44.267Z,0.00
2018-02-17T01:10:44.259Z,0.00
2018-02-17T01:11:44.229Z,0.00
2018-02-17T01:12:44.213Z,0.00
2018-02-17T01:13:44.190Z,0.00
2018-02-17T01:14:44.186Z,0.00
2018-02-17T01:15:44.149Z,0.00
2018-02-17T01:16:44.147Z,0.00
2018-02-17T01:17:44.112Z,0.00
2018-02-17T01:18:44.093Z,0.00
2018-02-17T01:19:44.077Z,0.00
2018-02-17T01:20:44.057Z,0.00
2018-02-17T01:21:44.036Z,0.00
2018-02-17T01:22:44.031Z,0.00
2018-02-17T01:23:43.997Z,0.00
2018-02-17T01:24:43.981Z,0.00
2018-02-17T01:25:43.959Z,0.00
2018-02-17T01:26:43.958Z,0.00
2018-02-17T01:27:43.917Z,0.00
2018-02-17T01:28:43.902Z,0.00
2018-02-17T01:29:43.880Z,0.00
2018-02-17T01:30:43.861Z,0.00
2018-02-17T01:31:43.842Z,0.00
2018-02-17T01:32:43.842Z,0.00
2018-02-17T01:33:43.807Z,0.00
2018-02-17T01:34:43.782Z,0.00
2018-02-17T01:35:43.764Z,0.00
2018-02-17T01:36:43.747Z,0.00
2018-02-17T01:37:43.730Z,0.00
2018-02-17T01:38:43.722Z,0.00
2018-02-17T01:39:43.684Z,0.00
2018-02-17T01:40:43.670Z,0.00
2018-02-17T01:41:43.653Z,0.00
2018-02-17T01:42:43.634Z,0.00
2018-02-17T01:43:43.631Z,0.00
2018-02-17T01:44:43.593Z,0.00
2018-02-17T01:45:43.568Z,0.00
2018-02-17T01:46:43.549Z,0.00
2018-02-17T01:47:43.530Z,0.00
2018-02-17T01:48:43.515Z,0.00
2018-02-17T01:49:43.515Z,0.00
2018-02-17T01:50:43.478Z,0.00
2018-02-17T01:51:43.454Z,0.00
2018-02-17T01:52:43.439Z,0.00
2018-02-17T01:53:43.423Z,0.00
2018-02-17T01:54:43.416Z,0.00
2018-02-17T01:55:43.379Z,0.00
2018-02-17T01:56:43.358Z,0.00
2018-02-17T01:57:43.342Z,0.00
2018-02-17T01:58:43.322Z,0.00
2018-02-17T01:59:43.313Z,0.00
2018-02-17T02:00:43.301Z,0.00
2018-02-17T02:01:43.266Z,0.00
2018-02-17T02:02:43.246Z,0.00
2018-02-17T02:03:43.227Z,0.00
2018-02-17T02:04:43.206Z,0.00
2018-02-17T02:05:43.202Z,0.00
2018-02-17T02:06:43.177Z,0.00
2018-02-17T02:07:43.149Z,0.00
2018-02-17T02:08:43.128Z,0.00
2018-02-17T02:09:43.106Z,0.00
2018-02-17T02:10:43.084Z,0.00
2018-02-17T02:11:43.080Z,0.00
2018-02-17T02:12:43.063Z,0.00
2018-02-17T02:13:43.029Z,0.00
2018-02-17T02:14:43.003Z,0.00
2018-02-17T02:15:42.988Z,0.00
2018-02-17T02:16:42.967Z,0.00
2018-02-17T02:17:42.947Z,0.00
2018-02-17T02:18:43.736Z,0.00
2018-02-17T02:19:42.909Z,0.00
2018-02-17T02:20:42.891Z,0.00
2018-02-17T02:21:42.869Z,0.00
2018-02-17T02:22:42.848Z,0.00
2018-02-17T02:23:42.843Z,0.00
2018-02-17T02:24:42.807Z,0.00
2018-02-17T02:25:42.793Z,0.00
2018-02-17T02:26:42.766Z,0.00
2018-02-17T02:27:42.747Z,0.00
2018-02-17T02:28:42.730Z,0.00
2018-02-17T02:29:42.810Z,0.00
2018-02-17T02:30:42.694Z,0.00
2018-02-17T02:31:42.668Z,0.00
2018-02-17T02:32:42.647Z,0.00
2018-02-17T02:33:43.226Z,0.00
2018-02-17T02:34:43.704Z,0.00
2018-02-17T02:35:42.602Z,0.00
2018-02-17T02:36:42.566Z,0.00
2018-02-17T02:37:44.205Z,0.00
2018-02-17T02:38:42.524Z,0.00
2018-02-17T02:39:42.520Z,0.00
2018-02-17T02:40:42.486Z,0.00
2018-02-17T02:41:42.481Z,0.00
2018-02-17T02:42:42.445Z,0.00
2018-02-17T02:43:42.434Z,0.00
2018-02-17T02:44:42.405Z,0.00
2018-02-17T02:45:42.384Z,0.00
2018-02-17T02:46:42.380Z,0.00
2018-02-17T02:47:42.347Z,0.00
2018-02-17T02:48:42.325Z,0.00
2018-02-17T02:49:42.322Z,0.00
2018-02-17T02:50:42.284Z,0.00
2018-02-17T02:51:42.268Z,0.00
2018-02-17T02:52:42.264Z,0.00
2018-02-17T02:53:42.224Z,0.00
2018-02-17T02:54:42.201Z,0.00
2018-02-17T02:55:42.183Z,0.00
2018-02-17T02:56:42.180Z,0.00
2018-02-17T02:57:42.139Z,0.00
2018-02-17T02:58:42.121Z,0.00
2018-02-17T02:59:42.100Z,0.00
2018-02-17T03:00:42.082Z,0.00
2018-02-17T03:01:42.061Z,0.00
2018-02-17T03:02:42.062Z,0.00
2018-02-17T03:03:42.019Z,0.00
2018-02-17T03:04:42.002Z,0.00
2018-02-17T03:05:41.977Z,0.00
2018-02-17T03:06:41.960Z,0.00
2018-02-17T03:07:41.942Z,0.00
2018-02-17T03:08:41.934Z,0.00
2018-02-17T03:09:41.898Z,0.00
2018-02-17T03:10:41.882Z,0.00
2018-02-17T03:11:41.861Z,0.00
2018-02-17T03:13:03.709Z,0.00
2018-02-17T03:13:41.820Z,0.00
2018-02-17T03:14:41.800Z,0.00
2018-02-17T03:15:41.777Z,0.00
2018-02-17T03:16:41.775Z,0.00
2018-02-17T03:17:42.244Z,0.00
2018-02-17T03:18:41.715Z,0.00
2018-02-17T03:19:42.244Z,0.00
2018-02-17T03:20:41.682Z,0.00
2018-02-17T03:21:41.678Z,0.00
2018-02-17T03:22:41.658Z,0.00
2018-02-17T03:23:41.619Z,0.00
2018-02-17T03:24:41.601Z,0.00
2018-02-17T03:25:41.581Z,0.00
2018-02-17T03:26:43.211Z,0.00
2018-02-17T03:27:41.540Z,0.00
2018-02-17T03:28:41.534Z,0.00
2018-02-17T03:29:41.501Z,0.00
2018-02-17T03:30:41.481Z,0.00
2018-02-17T03:31:41.463Z,0.00
2018-02-17T03:32:41.459Z,0.00
2018-02-17T03:33:41.422Z,0.00
2018-02-17T03:34:41.402Z,0.00
2018-02-17T03:35:41.405Z,0.00
2018-02-17T03:36:41.362Z,0.00
2018-02-17T03:37:41.345Z,0.00
2018-02-17T03:38:41.340Z,0.00
2018-02-17T03:39:41.303Z,0.00
2018-02-17T03:40:41.279Z,0.00
2018-02-17T03:41:41.268Z,0.00
2018-02-17T03:42:41.246Z,0.00
2018-02-17T03:43:41.237Z,0.00
2018-02-17T03:44:41.205Z,0.00
2018-02-17T03:45:41.190Z,0.00
2018-02-17T03:46:41.165Z,0.00
2018-02-17T03:47:41.156Z,0.00
2018-02-17T03:48:41.136Z,0.00
2018-02-17T03:49:41.102Z,0.00
2018-02-17T03:50:41.087Z,0.00
2018-02-17T03:51:41.066Z,0.00
2018-02-17T03:52:43.716Z,0.00
2018-02-17T03:53:41.022Z,0.00
2018-02-17T03:54:41.743Z,0.00
2018-02-17T03:55:40.981Z,0.00
2018-02-17T03:56:40.961Z,0.00
2018-02-17T03:57:40.954Z,0.00
2018-02-17T03:58:40.943Z,0.00
2018-02-17T03:59:40.913Z,0.00
2018-02-17T04:00:40.882Z,0.00
2018-02-17T04:01:40.861Z,0.00
2018-02-17T04:02:40.854Z,0.00
2018-02-17T04:03:40.823Z,0.00
2018-02-17T04:04:40.814Z,0.00
2018-02-17T04:05:40.780Z,0.00
2018-02-17T04:06:40.775Z,0.00
2018-02-17T04:07:40.754Z,0.00
2018-02-17T04:08:40.725Z,0.00
2018-02-17T04:09:40.702Z,0.00
2018-02-17T04:10:40.680Z,0.00
2018-02-17T04:11:40.660Z,0.00
2018-02-17T04:12:40.637Z,0.00
2018-02-17T04:13:40.637Z,0.00
2018-02-17T04:14:40.595Z,0.00
2018-02-17T04:15:40.583Z,0.00
2018-02-17T04:16:40.561Z,0.00
2018-02-17T04:17:40.540Z,0.00
2018-02-17T04:18:40.519Z,0.00
2018-02-17T04:19:40.518Z,0.00
2018-02-17T04:20:40.480Z,0.00
2018-02-17T04:21:40.456Z,0.00
2018-02-17T04:22:40.433Z,0.00
2018-02-17T04:23:40.419Z,0.00
2018-02-17T04:24:40.414Z,0.00
2018-02-17T04:25:42.208Z,0.00
2018-02-17T04:26:40.357Z,0.00
2018-02-17T04:27:40.342Z,0.00
2018-02-17T04:28:40.318Z,0.00
2018-02-17T04:29:40.299Z,0.00
2018-02-17T04:30:40.293Z,0.00
2018-02-17T04:31:40.259Z,0.00
2018-02-17T04:32:40.241Z,0.00
2018-02-17T04:33:40.220Z,0.00
2018-02-17T04:34:40.216Z,0.00
2018-02-17T04:35:40.178Z,0.00
2018-02-17T04:36:40.158Z,0.00
2018-02-17T04:37:40.140Z,0.00
2018-02-17T04:38:40.120Z,0.00
2018-02-17T04:39:40.115Z,0.00
2018-02-17T04:40:40.075Z,0.00
2018-02-17T04:41:40.062Z,0.00
2018-02-17T04:42:40.040Z,0.00
2018-02-17T04:43:40.017Z,0.00
2018-02-17T04:44:40.017Z,0.00
2018-02-17T04:45:39.981Z,0.00
2018-02-17T04:46:39.969Z,0.00
2018-02-17T04:47:39.937Z,0.00
2018-02-17T04:48:39.921Z,0.00
2018-02-17T04:49:39.900Z,0.00
2018-02-17T04:50:39.899Z,0.00
2018-02-17T04:51:39.861Z,0.00
2018-02-17T04:52:39.838Z,0.00
2018-02-17T04:53:39.819Z,0.00
2018-02-17T04:54:39.798Z,0.00
2018-02-17T04:55:39.779Z,0.00
2018-02-17T04:56:39.774Z,0.00
2018-02-17T04:57:39.738Z,0.00
2018-02-17T04:58:39.723Z,0.00
2018-02-17T04:59:40.241Z,0.00
2018-02-17T05:00:39.688Z,0.00
2018-02-17T05:01:39.657Z,0.00
2018-02-17T05:02:39.650Z,0.00
2018-02-17T05:03:39.619Z,0.00
2018-02-17T05:04:39.598Z,0.00
2018-02-17T05:05:39.577Z,0.00
2018-02-17T05:06:39.559Z,0.00
2018-02-17T05:07:39.553Z,0.00
2018-02-17T05:08:39.518Z,0.00
2018-02-17T05:09:39.492Z,0.00
2018-02-17T05:10:39.478Z,0.00
2018-02-17T05:11:39.450Z,0.00
2018-02-17T05:12:39.437Z,0.00
2018-02-17T05:13:39.428Z,0.00
2018-02-17T05:14:39.396Z,0.00
2018-02-17T05:15:39.374Z,0.00
2018-02-17T05:16:39.354Z,0.00
2018-02-17T05:17:39.335Z,0.00
2018-02-17T05:18:39.331Z,0.00
2018-02-17T05:19:39.292Z,0.00
2018-02-17T05:20:39.273Z,0.00
2018-02-17T05:21:39.253Z,0.00
2018-02-17T05:22:41.205Z,0.00
2018-02-17T05:23:39.211Z,0.00
2018-02-17T05:24:39.216Z,0.00
2018-02-17T05:25:39.174Z,0.00
2018-02-17T05:26:39.151Z,0.00
2018-02-17T05:27:39.143Z,0.00
2018-02-17T05:28:39.110Z,0.00
2018-02-17T05:29:39.095Z,0.00
2018-02-17T05:30:39.083Z,0.00
2018-02-17T05:31:39.051Z,0.00
2018-02-17T05:32:39.779Z,0.00
2018-02-17T05:33:39.032Z,0.00
2018-02-17T05:34:38.992Z,0.00
2018-02-17T05:35:38.970Z,0.00
2018-02-17T05:36:38.963Z,0.00
2018-02-17T05:37:38.931Z,0.00
2018-02-17T05:38:38.907Z,0.00
2018-02-17T05:39:38.888Z,0.00
2018-02-17T05:40:38.884Z,0.00
2018-02-17T05:41:38.848Z,0.00
2018-02-17T05:42:38.832Z,0.00
2018-02-17T05:43:38.826Z,0.00
2018-02-17T05:44:38.788Z,0.00
2018-02-17T05:45:38.769Z,0.00
2018-02-17T05:46:38.748Z,0.00
2018-02-17T05:47:38.744Z,0.00
2018-02-17T05:48:38.707Z,0.00
2018-02-17T05:49:38.702Z,0.00
2018-02-17T05:50:38.666Z,0.00
2018-02-17T05:51:38.646Z,0.00
2018-02-17T05:52:38.627Z,0.00
2018-02-17T05:53:38.621Z,0.00
2018-02-17T05:54:38.585Z,0.00
2018-02-17T05:55:38.566Z,0.00
2018-02-17T05:56:38.547Z,0.00
2018-02-17T05:57:38.528Z,0.00
2018-02-17T05:58:38.521Z,0.00
2018-02-17T05:59:38.490Z,0.00
2018-02-17T06:00:38.462Z,0.00
2018-02-17T06:01:38.443Z,0.00
2018-02-17T06:02:38.440Z,0.00
2018-02-17T06:03:38.405Z,0.00
2018-02-17T06:04:38.398Z,0.00
2018-02-17T06:05:38.367Z,0.00
2018-02-17T06:06:38.343Z,0.00
2018-02-17T06:07:38.381Z,0.00
2018-02-17T06:08:38.301Z,0.00
2018-02-17T06:09:38.304Z,0.00
2018-02-17T06:10:40.197Z,0.00
2018-02-17T06:11:38.244Z,0.00
2018-02-17T06:12:38.226Z,0.00
2018-02-17T06:13:38.202Z,0.00
2018-02-17T06:14:38.184Z,0.00
2018-02-17T06:15:38.176Z,0.00
2018-02-17T06:16:38.142Z,0.00
2018-02-17T06:17:38.123Z,0.00
2018-02-17T06:18:38.103Z,0.00
2018-02-17T06:19:38.096Z,0.00
2018-02-17T06:20:38.060Z,0.00
2018-02-17T06:21:38.042Z,0.00
2018-02-17T06:22:38.017Z,0.00
2018-02-17T06:23:38.000Z,0.00
2018-02-17T06:24:37.984Z,0.00
2018-02-17T06:25:38.774Z,0.00
2018-02-17T06:26:37.942Z,0.00
2018-02-17T06:27:37.920Z,0.00
2018-02-17T06:28:39.698Z,0.00
2018-02-17T06:29:37.878Z,0.00
2018-02-17T06:30:37.858Z,0.00
2018-02-17T06:31:37.854Z,0.00
2018-02-17T06:32:37.818Z,0.00
2018-02-17T06:33:37.800Z,0.00
2018-02-17T06:34:37.779Z,0.00
2018-02-17T06:35:37.756Z,0.00
2018-02-17T06:36:37.755Z,0.00
2018-02-17T06:37:37.717Z,0.00
2018-02-17T06:38:37.698Z,0.00
2018-02-17T06:39:37.676Z,0.00
2018-02-17T06:40:37.663Z,0.00
2018-02-17T06:41:37.655Z,0.00
2018-02-17T06:42:37.616Z,0.00
2018-02-17T06:43:37.597Z,0.00
2018-02-17T06:44:37.576Z,0.00
2018-02-17T06:45:37.571Z,0.00
2018-02-17T06:46:38.194Z,0.00
2018-02-17T06:47:37.513Z,0.00
2018-02-17T06:48:37.498Z,0.00
2018-02-17T06:49:37.484Z,0.00
2018-02-17T06:50:37.462Z,5.63
2018-02-17T06:51:37.434Z,5.63
2018-02-17T06:52:37.429Z,5.63
2018-02-17T06:53:37.398Z,5.63
2018-02-17T06:54:37.377Z,5.63
2018-02-17T06:55:37.356Z,5.63
2018-02-17T06:56:37.338Z,5.63
2018-02-17T06:57:37.311Z,5.63
2018-02-17T06:58:38.232Z,5.63
2018-02-17T06:59:37.274Z,5.63
2018-02-17T07:00:37.257Z,5.63
2018-02-17T07:01:37.234Z,5.63
2018-02-17T07:02:37.213Z,5.63
2018-02-17T07:03:37.198Z,5.63
2018-02-17T07:04:37.195Z,5.63
2018-02-17T07:05:37.151Z,11.25
2018-02-17T07:06:37.134Z,11.25
2018-02-17T07:07:37.115Z,11.25
2018-02-17T07:08:37.118Z,11.25
2018-02-17T07:09:37.075Z,11.25
2018-02-17T07:10:37.070Z,11.25
2018-02-17T07:11:37.038Z,11.25
2018-02-17T07:12:37.009Z,11.25
2018-02-17T07:13:36.992Z,11.25
2018-02-17T07:14:36.971Z,11.25
2018-02-17T07:15:36.953Z,16.88
2018-02-17T07:16:36.954Z,16.88
2018-02-17T07:17:36.914Z,16.88
2018-02-17T07:18:36.909Z,16.88
2018-02-17T07:19:36.874Z,16.88
2018-02-17T07:20:36.849Z,16.88
2018-02-17T07:21:57.839Z,16.88
2018-02-17T07:22:36.813Z,16.88
2018-02-17T07:23:36.793Z,22.50
2018-02-17T07:24:36.773Z,22.50
2018-02-17T07:25:36.755Z,22.50
2018-02-17T07:26:36.734Z,22.50
2018-02-17T07:27:37.224Z,22.50
2018-02-17T07:28:36.696Z,22.50
2018-02-17T07:29:36.672Z,22.50
2018-02-17T07:30:36.648Z,28.13
2018-02-17T07:31:36.632Z,28.13
2018-02-17T07:32:36.631Z,28.13
2018-02-17T07:33:36.606Z,28.13
2018-02-17T07:34:36.572Z,28.13
2018-02-17T07:35:36.554Z,28.13
2018-02-17T07:36:36.533Z,28.13
2018-02-17T07:37:36.516Z,28.13
2018-02-17T07:38:36.519Z,28.13
2018-02-17T07:39:36.474Z,28.13
2018-02-17T07:40:36.456Z,28.13
2018-02-17T07:41:36.443Z,28.13
2018-02-17T07:42:36.477Z,28.13
2018-02-17T07:43:36.408Z,33.75
2018-02-17T07:44:36.410Z,33.75
2018-02-17T07:45:36.363Z,33.75
2018-02-17T07:46:36.354Z,33.75
2018-02-17T07:47:36.325Z,39.38
2018-02-17T07:48:36.299Z,39.38
2018-02-17T07:49:36.299Z,39.38
2018-02-17T07:50:36.277Z,39.38
2018-02-17T07:51:36.302Z,39.38
2018-02-17T07:52:36.218Z,45.00
2018-02-17T07:53:36.196Z,45.00
2018-02-17T07:54:36.177Z,45.00
2018-02-17T07:55:36.156Z,45.00
2018-02-17T07:56:36.156Z,45.00
2018-02-17T07:57:36.123Z,50.63
2018-02-17T07:58:36.104Z,50.63
2018-02-17T07:59:36.087Z,50.63
2018-02-17T08:00:36.181Z,56.25
2018-02-17T08:01:36.047Z,56.25
2018-02-17T08:02:36.088Z,56.25
2018-02-17T08:03:36.016Z,61.88
2018-02-17T08:04:35.997Z,61.88
2018-02-17T08:05:35.971Z,61.88
2018-02-17T08:06:35.971Z,61.88
2018-02-17T08:07:35.940Z,61.88
2018-02-17T08:08:37.706Z,61.88
2018-02-17T08:09:35.881Z,67.50
2018-02-17T08:10:35.910Z,67.50
2018-02-17T08:11:36.699Z,67.50
2018-02-17T08:12:35.838Z,67.50
2018-02-17T08:13:35.821Z,67.50
2018-02-17T08:14:35.808Z,67.50
2018-02-17T08:15:35.785Z,73.13
2018-02-17T08:16:35.769Z,73.13
2018-02-17T08:17:35.744Z,73.13
2018-02-17T08:18:56.727Z,78.75
2018-02-17T08:19:35.698Z,78.75
2018-02-17T08:20:35.667Z,84.38
2018-02-17T08:21:35.666Z,84.38
2018-02-17T08:22:35.631Z,84.38
2018-02-17T08:23:35.609Z,90.00
2018-02-17T08:24:35.628Z,90.00
2018-02-17T08:25:35.571Z,90.00
2018-02-17T08:26:35.556Z,90.00
2018-02-17T08:27:35.552Z,90.00
2018-02-17T08:28:35.512Z,90.00
2018-02-17T08:29:35.498Z,90.00
2018-02-17T08:30:35.544Z,95.63
2018-02-17T08:31:35.511Z,95.63
2018-02-17T08:32:35.459Z,101.25
2018-02-17T08:33:35.422Z,106.88
2018-02-17T08:34:35.398Z,106.88
2018-02-17T08:35:35.380Z,106.88
2018-02-17T08:36:35.361Z,112.50
2018-02-17T08:37:35.342Z,118.13
2018-02-17T08:38:35.337Z,118.13
2018-02-17T08:39:35.304Z,123.75
2018-02-17T08:40:35.282Z,123.75
2018-02-17T08:41:35.267Z,129.38
2018-02-17T08:42:35.256Z,129.38
2018-02-17T08:43:35.242Z,135.00
2018-02-17T08:44:35.262Z,135.00
2018-02-17T08:45:35.211Z,140.63
2018-02-17T08:46:35.170Z,140.63
2018-02-17T08:47:35.167Z,140.63
2018-02-17T08:48:35.132Z,140.63
2018-02-17T08:49:35.113Z,140.63
2018-02-17T08:50:35.107Z,140.63
2018-02-17T08:51:35.079Z,140.63
2018-02-17T08:52:35.075Z,140.63
2018-02-17T08:53:35.043Z,146.25
2018-02-17T08:54:35.025Z,151.88
2018-02-17T08:55:35.001Z,157.50
2018-02-17T08:56:34.986Z,157.50
2018-02-17T08:57:34.983Z,163.13
2018-02-17T08:58:34.951Z,168.75
2018-02-17T08:59:34.932Z,168.75
2018-02-17T09:00:34.913Z,168.75
2018-02-17T09:01:34.899Z,168.75
2018-02-17T09:02:34.907Z,168.75
2018-02-17T09:03:34.860Z,163.13
2018-02-17T09:04:34.837Z,151.88
2018-02-17T09:05:34.824Z,146.25
2018-02-17T09:06:34.810Z,140.63
2018-02-17T09:07:34.789Z,135.00
2018-02-17T09:08:34.782Z,135.00
2018-02-17T09:09:34.753Z,129.38
2018-02-17T09:10:34.731Z,129.38
2018-02-17T09:11:34.714Z,129.38
2018-02-17T09:12:34.700Z,135.00
2018-02-17T09:13:34.699Z,135.00
2018-02-17T09:14:34.660Z,140.63
2018-02-17T09:15:34.641Z,146.25
2018-02-17T09:16:34.625Z,157.50
2018-02-17T09:17:34.604Z,163.13
2018-02-17T09:18:34.585Z,174.38
2018-02-17T09:19:34.588Z,180.00
2018-02-17T09:20:34.553Z,191.25
2018-02-17T09:21:34.538Z,196.88
2018-02-17T09:22:34.513Z,196.88
2018-02-17T09:23:34.500Z,196.88
2018-02-17T09:24:45.207Z,196.88
2018-02-17T09:25:34.478Z,196.88
2018-02-17T09:26:34.479Z,202.50
2018-02-17T09:27:35.252Z,208.13
2018-02-17T09:28:34.409Z,213.75
2018-02-17T09:29:34.415Z,219.38
2018-02-17T09:30:34.377Z,219.38
2018-02-17T09:31:34.374Z,219.38
2018-02-17T09:32:34.339Z,213.75
2018-02-17T09:33:34.323Z,219.38
2018-02-17T09:34:34.310Z,219.38
2018-02-17T09:35:34.289Z,225.00
2018-02-17T09:36:34.270Z,225.00
2018-02-17T09:37:55.267Z,225.00
2018-02-17T09:38:34.229Z,230.63
2018-02-17T09:39:34.220Z,236.25
2018-02-17T09:40:34.202Z,241.88
2018-02-17T09:41:34.184Z,241.88
2018-02-17T09:42:34.181Z,247.50
2018-02-17T09:43:34.142Z,253.13
2018-02-17T09:44:34.130Z,258.75
2018-02-17T09:45:34.110Z,258.75
2018-02-17T09:46:34.094Z,247.50
2018-02-17T09:47:34.773Z,236.25
2018-02-17T09:48:34.100Z,225.00
2018-02-17T09:49:34.059Z,219.38
2018-02-17T09:50:34.026Z,219.38
2018-02-17T09:51:34.006Z,230.63
2018-02-17T09:52:34.032Z,236.25
2018-02-17T09:53:33.971Z,236.25
2018-02-17T09:54:33.953Z,241.88
2018-02-17T09:55:33.940Z,253.13
2018-02-17T09:56:33.916Z,258.75
2018-02-17T09:57:33.903Z,253.13
2018-02-17T09:58:33.898Z,253.13
2018-02-17T09:59:33.867Z,247.50
2018-02-17T10:00:33.852Z,236.25
2018-02-17T10:01:33.835Z,230.63
2018-02-17T10:02:36.712Z,225.00
2018-02-17T10:03:33.798Z,219.38
2018-02-17T10:04:34.299Z,208.13
2018-02-17T10:05:35.712Z,208.13
2018-02-17T10:06:33.748Z,202.50
2018-02-17T10:07:33.733Z,196.88
2018-02-17T10:08:34.713Z,202.50
2018-02-17T10:09:33.714Z,219.38
2018-02-17T10:10:33.677Z,219.38
2018-02-17T10:11:34.214Z,230.63
2018-02-17T10:12:33.647Z,230.63
2018-02-17T10:13:33.629Z,230.63
2018-02-17T10:14:33.614Z,225.00
2018-02-17T10:15:33.608Z,230.63
2018-02-17T10:16:33.606Z,247.50
2018-02-17T10:17:33.573Z,258.75
2018-02-17T10:18:33.566Z,264.38
2018-02-17T10:19:35.215Z,281.25
2018-02-17T10:20:33.504Z,286.88
2018-02-17T10:21:33.490Z,275.63
2018-02-17T10:22:34.244Z,286.88
2018-02-17T10:23:33.457Z,281.25
2018-02-17T10:24:33.444Z,281.25
2018-02-17T10:25:33.426Z,275.63
2018-02-17T10:26:33.408Z,270.00
2018-02-17T10:27:33.386Z,270.00
2018-02-17T10:28:35.219Z,264.38
2018-02-17T10:29:33.354Z,264.38
2018-02-17T10:30:33.339Z,264.38
2018-02-17T10:31:33.321Z,264.38
2018-02-17T10:32:35.219Z,258.75
2018-02-17T10:33:33.297Z,258.75
2018-02-17T10:34:33.274Z,258.75
2018-02-17T10:35:33.338Z,258.75
2018-02-17T10:36:33.237Z,253.13
2018-02-17T10:37:33.217Z,247.50
2018-02-17T10:38:33.231Z,241.88
2018-02-17T10:39:33.186Z,230.63
2018-02-17T10:40:34.219Z,219.38
2018-02-17T10:41:33.212Z,202.50
2018-02-17T10:42:33.134Z,196.88
2018-02-17T10:43:33.130Z,202.50
2018-02-17T10:44:33.098Z,213.75
2018-02-17T10:45:33.097Z,230.63
2018-02-17T10:46:33.067Z,258.75
2018-02-17T10:47:33.047Z,281.25
2018-02-17T10:48:33.033Z,320.63
2018-02-17T10:49:33.029Z,360.00
2018-02-17T10:50:32.997Z,410.63
2018-02-17T10:51:32.981Z,427.50
2018-02-17T10:52:32.967Z,461.25
2018-02-17T10:53:33.888Z,495.00
2018-02-17T10:54:54.799Z,523.13
2018-02-17T10:55:32.916Z,534.38
2018-02-17T10:56:32.903Z,556.88
2018-02-17T10:57:32.882Z,534.38
2018-02-17T10:58:32.864Z,534.38
2018-02-17T10:59:32.860Z,562.50
2018-02-17T11:00:32.847Z,551.25
2018-02-17T11:01:32.831Z,534.38
2018-02-17T11:02:32.797Z,562.50
2018-02-17T11:03:32.807Z,630.00
2018-02-17T11:04:32.775Z,607.50
2018-02-17T11:05:32.757Z,596.25
2018-02-17T11:06:32.761Z,624.38
2018-02-17T11:07:32.724Z,680.63
2018-02-17T11:08:32.712Z,669.38
2018-02-17T11:09:32.708Z,669.38
2018-02-17T11:10:32.679Z,646.88
2018-02-17T11:11:32.664Z,691.88
2018-02-17T11:12:32.651Z,703.13
2018-02-17T11:13:33.265Z,691.88
2018-02-17T11:14:32.622Z,703.13
2018-02-17T11:15:32.609Z,635.63
2018-02-17T11:16:32.593Z,596.25
2018-02-17T11:17:32.578Z,562.50
2018-02-17T11:18:32.575Z,545.63
2018-02-17T11:19:32.555Z,511.88
2018-02-17T11:20:32.555Z,511.88
2018-02-17T11:21:32.526Z,511.88
2018-02-17T11:22:32.510Z,506.25
2018-02-17T11:23:32.494Z,517.50
2018-02-17T11:24:32.817Z,540.00
2018-02-17T11:25:32.482Z,556.88
2018-02-17T11:26:32.457Z,568.13
2018-02-17T11:27:32.447Z,590.63
2018-02-17T11:28:32.435Z,596.25
2018-02-17T11:29:32.421Z,613.13
2018-02-17T11:30:32.437Z,624.38
2018-02-17T11:31:32.397Z,641.25
2018-02-17T11:32:32.384Z,641.25
2018-02-17T11:33:32.371Z,641.25
2018-02-17T11:34:32.357Z,635.63
2018-02-17T11:35:32.339Z,635.63
2018-02-17T11:36:32.346Z,641.25
2018-02-17T11:37:32.322Z,646.88
2018-02-17T11:38:32.307Z,641.25
2018-02-17T11:39:32.294Z,630.00
2018-02-17T11:40:32.280Z,601.88
2018-02-17T11:41:32.289Z,573.75
2018-02-17T11:42:32.272Z,556.88
2018-02-17T11:43:32.249Z,483.75
2018-02-17T11:44:32.237Z,427.50
2018-02-17T11:45:32.223Z,382.50
2018-02-17T11:46:32.209Z,354.38
2018-02-17T11:47:32.797Z,388.13
2018-02-17T11:48:32.201Z,393.75
2018-02-17T11:49:32.178Z,326.25
2018-02-17T11:50:32.160Z,343.13
2018-02-17T11:51:32.154Z,360.00
2018-02-17T11:52:32.138Z,382.50
2018-02-17T11:53:32.143Z,399.38
2018-02-17T11:54:32.106Z,416.25
2018-02-17T11:55:32.101Z,399.38
2018-02-17T11:56:32.086Z,405.00
2018-02-17T11:57:32.073Z,495.00
2018-02-17T11:58:32.073Z,528.75
2018-02-17T11:59:32.113Z,523.13
2018-02-17T12:00:32.032Z,534.38
2018-02-17T12:01:32.023Z,551.25
2018-02-17T12:02:32.008Z,562.50
2018-02-17T12:03:31.995Z,562.50
2018-02-17T12:04:31.974Z,556.88
2018-02-17T12:05:31.987Z,551.25
2018-02-17T12:06:31.956Z,556.88
2018-02-17T12:07:32.739Z,540.00
2018-02-17T12:08:31.925Z,528.75
2018-02-17T12:09:31.914Z,517.50
2018-02-17T12:10:31.919Z,523.13
2018-02-17T12:11:31.894Z,523.13
2018-02-17T12:12:31.876Z,523.13
2018-02-17T12:13:32.808Z,528.75
2018-02-17T12:14:31.848Z,528.75
2018-02-17T12:15:31.859Z,500.63
2018-02-17T12:16:31.826Z,478.13
2018-02-17T12:17:31.813Z,478.13
2018-02-17T12:18:31.800Z,478.13
2018-02-17T12:19:31.788Z,478.13
2018-02-17T12:20:31.776Z,455.63
2018-02-17T12:21:31.776Z,461.25
2018-02-17T12:22:31.758Z,461.25
2018-02-17T12:23:31.738Z,433.13
2018-02-17T12:24:31.727Z,450.00
2018-02-17T12:25:32.742Z,438.75
2018-02-17T12:26:31.732Z,421.88
2018-02-17T12:27:32.312Z,427.50
2018-02-17T12:28:31.680Z,450.00
2018-02-17T12:29:32.244Z,466.88
2018-02-17T12:30:31.649Z,478.13
2018-02-17T12:31:31.674Z,523.13
2018-02-17T12:32:31.627Z,556.88
2018-02-17T12:33:31.630Z,579.38
2018-02-17T12:34:31.604Z,601.88
2018-02-17T12:35:31.591Z,624.38
2018-02-17T12:36:31.584Z,652.50
2018-02-17T12:37:31.567Z,658.13
2018-02-17T12:38:32.314Z,669.38
2018-02-17T12:39:31.554Z,663.75
2018-02-17T12:40:31.534Z,680.63
2018-02-17T12:41:31.524Z,686.25
2018-02-17T12:42:31.509Z,691.88
2018-02-17T12:43:31.500Z,686.25
2018-02-17T12:44:31.507Z,691.88
2018-02-17T12:45:31.480Z,691.88
2018-02-17T12:46:31.473Z,714.38
2018-02-17T12:47:31.463Z,697.50
2018-02-17T12:48:31.453Z,714.38
2018-02-17T12:49:31.443Z,714.38
2018-02-17T12:50:31.448Z,675.00
2018-02-17T12:51:31.431Z,635.63
2018-02-17T12:52:33.251Z,601.88
2018-02-17T12:53:31.406Z,573.75
2018-02-17T12:54:31.398Z,528.75
2018-02-17T12:55:31.405Z,483.75
2018-02-17T12:56:31.381Z,444.38
2018-02-17T12:57:31.371Z,421.88